createdAt,value
2023-02-11T00:02:25.667Z,18.46
2023-02-11T00:04:52.375Z,16.97
2023-02-11T00:07:19.011Z,18.52
2023-02-11T00:09:45.643Z,18.55
2023-02-11T00:12:12.299Z,17.98
2023-02-11T00:14:38.976Z,17.63
2023-02-11T00:17:05.638Z,17.92
2023-02-11T00:19:32.314Z,17.23
2023-02-11T00:21:58.963Z,18.59
2023-02-11T00:24:25.641Z,17.76
2023-02-11T00:26:52.302Z,18.39
2023-02-11T00:29:19.002Z,17.72
2023-02-11T00:31:45.760Z,18.25
2023-02-11T00:34:12.485Z,18.82
2023-02-11T00:36:39.176Z,18.44
2023-02-11T00:39:05.809Z,18.45
2023-02-11T00:41:32.459Z,17.71
2023-02-11T00:43:59.238Z,17.63
2023-02-11T00:46:25.952Z,17.47
2023-02-11T00:48:52.687Z,18.12
2023-02-11T00:51:19.348Z,18.16
2023-02-11T00:53:46.041Z,18.33
2023-02-11T00:56:12.767Z,19.16
2023-02-11T00:58:39.428Z,18.96
2023-02-11T01:01:06.107Z,18.48
2023-02-11T01:03:32.800Z,18.92
2023-02-11T01:05:59.490Z,18.48
2023-02-11T01:08:26.237Z,18.40
2023-02-11T01:11:00.119Z,18.25
2023-02-11T01:13:27.057Z,17.77
2023-02-11T01:15:53.975Z,16.48
2023-02-11T01:18:20.763Z,17.26
2023-02-11T01:20:47.430Z,16.45
2023-02-11T01:23:14.095Z,15.75
2023-02-11T01:25:40.749Z,15.56
2023-02-11T01:28:07.465Z,15.02
2023-02-11T01:30:34.161Z,14.81
2023-02-11T01:33:00.816Z,13.25
2023-02-11T01:35:27.479Z,13.41
2023-02-11T01:37:54.123Z,14.65
2023-02-11T01:40:20.825Z,15.54
2023-02-11T01:42:49.996Z,15.45
2023-02-11T01:45:45.313Z,15.60
2023-02-11T01:48:16.007Z,15.72
2023-02-11T01:50:42.665Z,15.11
2023-02-11T01:53:09.327Z,15.04
2023-02-11T01:55:35.995Z,14.85
2023-02-11T01:58:02.873Z,12.39
2023-02-11T02:00:38.071Z,10.62
2023-02-11T02:03:13.230Z,10.72
2023-02-11T02:05:51.108Z,11.18
2023-02-11T02:08:27.114Z,11.52
2023-02-11T02:10:53.748Z,12.52
2023-02-11T02:13:20.494Z,12.70
2023-02-11T02:16:04.517Z,13.53
2023-02-11T02:18:37.160Z,13.07
2023-02-11T02:21:38.637Z,13.87
2023-02-11T02:24:38.543Z,15.21
2023-02-11T02:27:32.391Z,15.20
2023-02-11T02:30:27.090Z,15.64
2023-02-11T02:33:21.951Z,15.39
2023-02-11T02:36:13.108Z,15.04
2023-02-11T02:38:51.092Z,15.37
2023-02-11T02:41:19.358Z,15.44
2023-02-11T02:43:48.352Z,15.07
2023-02-11T02:46:21.234Z,14.63
2023-02-11T02:48:48.055Z,15.34
2023-02-11T02:51:39.845Z,14.93
2023-02-11T02:54:31.293Z,15.37
2023-02-11T02:57:36.818Z,14.42
2023-02-11T03:00:12.570Z,15.25
2023-02-11T03:03:05.393Z,16.19
2023-02-11T03:05:48.979Z,15.67
2023-02-11T03:08:34.354Z,14.88
2023-02-11T03:11:01.307Z,15.98
2023-02-11T03:13:30.022Z,14.71
2023-02-11T03:15:57.414Z,15.66
2023-02-11T03:18:26.221Z,15.42
2023-02-11T03:20:53.167Z,16.19
2023-02-11T03:23:34.959Z,15.73
2023-02-11T03:26:25.279Z,15.37
2023-02-11T03:28:56.064Z,14.81
2023-02-11T03:31:37.095Z,14.85
2023-02-11T03:34:31.484Z,15.70
2023-02-11T03:37:02.101Z,15.80
2023-02-11T03:39:44.697Z,14.91
2023-02-11T03:42:11.368Z,15.00
2023-02-11T03:44:41.952Z,15.37
2023-02-11T03:47:09.324Z,14.89
2023-02-11T03:49:36.124Z,15.27
2023-02-11T03:52:02.797Z,14.93
2023-02-11T03:54:30.282Z,15.40
2023-02-11T03:56:58.557Z,15.07
2023-02-11T03:59:25.438Z,13.93
2023-02-11T04:01:52.102Z,13.79
2023-02-11T04:04:18.782Z,13.69
2023-02-11T04:06:45.574Z,14.39
2023-02-11T04:09:12.347Z,14.22
2023-02-11T04:11:39.038Z,13.85
2023-02-11T04:14:05.680Z,13.75
2023-02-11T04:16:32.386Z,13.83
2023-02-11T04:18:59.152Z,14.09
2023-02-11T04:21:25.796Z,13.30
2023-02-11T04:23:52.486Z,14.18
2023-02-11T04:26:19.145Z,13.57
2023-02-11T04:28:45.778Z,13.25
2023-02-11T04:31:12.512Z,13.23
2023-02-11T04:33:39.203Z,12.37
2023-02-11T04:36:06.181Z,12.53
2023-02-11T04:38:32.816Z,12.93
2023-02-11T04:40:59.581Z,13.64
2023-02-11T04:43:26.302Z,12.80
2023-02-11T04:45:53.679Z,12.52
2023-02-11T04:48:20.501Z,12.88
2023-02-11T04:50:47.161Z,12.96
2023-02-11T04:53:13.811Z,13.21
2023-02-11T04:55:40.513Z,13.01
2023-02-11T04:58:07.179Z,13.54
2023-02-11T05:00:34.596Z,12.52
2023-02-11T05:03:01.372Z,12.68
2023-02-11T05:05:28.018Z,11.64
2023-02-11T05:07:54.672Z,11.23
2023-02-11T05:10:21.339Z,12.42
2023-02-11T05:12:48.779Z,13.22
2023-02-11T05:15:15.747Z,12.93
2023-02-11T05:17:42.416Z,13.07
2023-02-11T05:20:09.690Z,12.96
2023-02-11T05:22:36.390Z,13.48
2023-02-11T05:25:03.067Z,13.05
2023-02-11T05:27:29.719Z,13.06
2023-02-11T05:29:56.355Z,12.92
2023-02-11T05:32:23.051Z,11.38
2023-02-11T05:34:49.698Z,10.82
2023-02-11T05:37:16.819Z,9.48
2023-02-11T05:39:43.469Z,9.07
2023-02-11T05:42:10.172Z,9.82
2023-02-11T05:44:36.805Z,10.63
2023-02-11T05:47:03.555Z,11.38
2023-02-11T05:49:30.431Z,11.90
2023-02-11T05:51:57.467Z,11.35
2023-02-11T05:54:25.289Z,11.60
2023-02-11T05:56:51.948Z,11.70
2023-02-11T05:59:18.615Z,11.68
2023-02-11T06:01:45.251Z,12.32
2023-02-11T06:04:11.905Z,12.45
2023-02-11T06:06:38.644Z,12.42
2023-02-11T06:09:05.318Z,12.58
2023-02-11T06:11:32.009Z,12.58
2023-02-11T06:13:58.660Z,12.70
2023-02-11T06:16:25.766Z,12.97
2023-02-11T06:18:53.304Z,13.39
2023-02-11T06:21:21.936Z,13.57
2023-02-11T06:23:49.653Z,13.03
2023-02-11T06:26:22.283Z,13.71
2023-02-11T06:28:49.893Z,13.25
2023-02-11T06:31:17.622Z,13.47
2023-02-11T06:33:46.280Z,13.71
2023-02-11T06:36:16.011Z,13.50
2023-02-11T06:38:43.650Z,13.49
2023-02-11T06:41:14.014Z,13.62
2023-02-11T06:43:42.915Z,13.25
2023-02-11T06:46:09.666Z,13.17
2023-02-11T06:48:38.122Z,13.99
2023-02-11T06:51:06.725Z,14.87
2023-02-11T06:53:38.411Z,14.74
2023-02-11T06:56:06.002Z,15.86
2023-02-11T06:58:32.708Z,15.69
2023-02-11T07:01:00.194Z,15.25
2023-02-11T07:03:28.803Z,15.30
2023-02-11T07:05:56.393Z,15.77
2023-02-11T07:08:24.000Z,14.42
2023-02-11T07:10:51.581Z,14.44
2023-02-11T07:13:18.292Z,14.17
2023-02-11T07:15:45.872Z,14.45
2023-02-11T07:18:14.720Z,15.45
2023-02-11T07:20:41.956Z,14.99
2023-02-11T07:23:09.558Z,14.78
2023-02-11T07:25:37.154Z,14.33
2023-02-11T07:28:03.920Z,13.85
2023-02-11T07:30:30.597Z,13.81
2023-02-11T07:32:57.255Z,13.50
2023-02-11T07:35:23.884Z,13.37
2023-02-11T07:37:50.501Z,14.40
2023-02-11T07:40:17.139Z,14.59
2023-02-11T07:42:43.774Z,14.77
2023-02-11T07:45:10.436Z,15.10
2023-02-11T07:47:37.081Z,15.64
2023-02-11T07:50:03.719Z,15.34
2023-02-11T07:52:33.264Z,14.47
2023-02-11T07:54:59.916Z,14.30
2023-02-11T07:57:26.765Z,14.20
2023-02-11T07:59:53.488Z,13.86
2023-02-11T08:02:20.157Z,13.62
2023-02-11T08:04:47.046Z,13.67
2023-02-11T08:07:17.273Z,13.26
2023-02-11T08:09:43.956Z,13.15
2023-02-11T08:12:10.594Z,14.20
2023-02-11T08:14:37.302Z,12.54
2023-02-11T08:17:03.954Z,12.89
2023-02-11T08:19:30.690Z,12.76
2023-02-11T08:21:57.937Z,12.56
2023-02-11T08:24:24.581Z,12.37
2023-02-11T08:26:51.233Z,12.34
2023-02-11T08:29:17.872Z,11.57
2023-02-11T08:31:45.901Z,11.83
2023-02-11T08:34:12.903Z,11.32
2023-02-11T08:36:39.753Z,11.79
2023-02-11T08:39:18.592Z,12.49
2023-02-11T08:41:47.349Z,12.83
2023-02-11T08:44:14.041Z,12.82
2023-02-11T08:46:40.676Z,12.06
2023-02-11T08:49:07.420Z,12.70
2023-02-11T08:51:34.043Z,12.36
2023-02-11T08:54:00.675Z,12.45
2023-02-11T08:56:27.374Z,12.50
2023-02-11T08:58:54.491Z,12.29
2023-02-11T09:01:26.270Z,12.55
2023-02-11T09:03:53.015Z,12.34
2023-02-11T09:06:19.713Z,12.40
2023-02-11T09:08:47.901Z,11.91
2023-02-11T09:11:14.543Z,12.25
2023-02-11T09:13:41.936Z,12.52
2023-02-11T09:16:09.552Z,12.56
2023-02-11T09:18:36.471Z,12.40
2023-02-11T09:21:04.185Z,12.00
2023-02-11T09:23:30.850Z,12.34
2023-02-11T09:25:57.562Z,11.51
2023-02-11T09:28:24.248Z,12.43
2023-02-11T09:30:51.325Z,11.63
2023-02-11T09:33:18.161Z,11.80
2023-02-11T09:35:44.813Z,11.88
2023-02-11T09:38:11.440Z,13.78
2023-02-11T09:40:42.727Z,14.65
2023-02-11T09:43:19.420Z,14.02
2023-02-11T09:45:46.101Z,15.42
2023-02-11T09:48:17.731Z,14.08
2023-02-11T09:50:50.302Z,13.77
2023-02-11T09:53:27.541Z,13.81
2023-02-11T09:55:55.847Z,13.75
2023-02-11T09:58:27.873Z,14.01
2023-02-11T10:01:08.808Z,14.44
2023-02-11T10:03:35.375Z,15.06
2023-02-11T10:06:13.816Z,14.60
2023-02-11T10:09:02.136Z,14.49
2023-02-11T10:11:53.530Z,13.73
2023-02-11T10:14:29.871Z,14.72
2023-02-11T10:17:18.977Z,16.21
2023-02-11T10:19:54.613Z,15.99
2023-02-11T10:22:36.795Z,17.45
2023-02-11T10:25:16.473Z,17.92
2023-02-11T10:27:43.107Z,18.72
2023-02-11T10:30:18.668Z,18.87
2023-02-11T10:32:48.650Z,19.94
2023-02-11T10:35:20.254Z,21.70
2023-02-11T10:37:47.112Z,21.14
2023-02-11T10:40:17.900Z,19.02
2023-02-11T10:42:47.104Z,18.30
2023-02-11T10:45:31.836Z,19.02
2023-02-11T10:48:00.862Z,22.64
2023-02-11T10:50:31.484Z,19.24
2023-02-11T10:53:17.280Z,18.79
2023-02-11T10:55:57.789Z,19.25
2023-02-11T10:58:45.223Z,19.69
2023-02-11T11:01:23.846Z,21.61
2023-02-11T11:03:52.084Z,22.50
2023-02-11T11:06:31.478Z,24.66
2023-02-11T11:08:58.192Z,27.23
2023-02-11T11:11:25.357Z,27.21
2023-02-11T11:13:57.477Z,27.52
2023-02-11T11:16:32.767Z,31.20
2023-02-11T11:19:08.300Z,31.37
2023-02-11T11:21:45.051Z,30.82
2023-02-11T11:24:34.976Z,32.78
2023-02-11T11:27:02.655Z,31.61
2023-02-11T11:29:29.136Z,31.19
2023-02-11T11:32:03.439Z,33.10
2023-02-11T11:34:32.172Z,32.41
2023-02-11T11:36:59.617Z,32.54
2023-02-11T11:39:32.797Z,32.75
2023-02-11T11:42:24.127Z,33.75
2023-02-11T11:45:04.133Z,34.31
2023-02-11T11:47:53.533Z,33.48
2023-02-11T11:50:26.137Z,33.18
2023-02-11T11:53:00.264Z,33.89
2023-02-11T11:55:45.274Z,33.55
2023-02-11T11:58:21.969Z,34.49
2023-02-11T12:00:53.803Z,33.59
2023-02-11T12:03:44.545Z,34.46
2023-02-11T12:06:21.114Z,35.61
2023-02-11T12:09:02.381Z,36.89
2023-02-11T12:12:07.911Z,37.39
2023-02-11T12:15:04.305Z,37.24
2023-02-11T12:17:38.239Z,38.37
2023-02-11T12:20:16.945Z,38.63
2023-02-11T12:22:56.774Z,38.01
2023-02-11T12:25:46.761Z,38.32
2023-02-11T12:28:20.542Z,37.16
2023-02-11T12:31:21.790Z,39.31
2023-02-11T12:33:57.393Z,38.49
2023-02-11T12:36:23.890Z,38.73
2023-02-11T12:38:50.370Z,38.57
2023-02-11T12:41:32.685Z,37.47
2023-02-11T12:43:59.500Z,39.83
2023-02-11T12:46:43.242Z,38.53
2023-02-11T12:49:34.017Z,38.99
2023-02-11T12:52:08.355Z,39.56
2023-02-11T12:54:36.900Z,39.55
2023-02-11T12:57:03.946Z,37.63
2023-02-11T13:00:07.735Z,38.21
2023-02-11T13:02:36.610Z,37.78
2023-02-11T13:05:31.782Z,36.26
2023-02-11T13:08:12.645Z,35.46
2023-02-11T13:10:41.138Z,37.73
2023-02-11T13:13:37.258Z,36.83
2023-02-11T13:16:06.559Z,38.23
2023-02-11T13:18:54.040Z,36.80
2023-02-11T13:21:34.838Z,35.17
2023-02-11T13:24:07.973Z,34.76
2023-02-11T13:27:02.128Z,33.31
2023-02-11T13:29:50.507Z,34.00
2023-02-11T13:32:17.156Z,33.13
2023-02-11T13:34:43.674Z,33.45
2023-02-11T13:37:36.164Z,34.23
2023-02-11T13:40:10.167Z,33.76
2023-02-11T13:42:50.989Z,33.38
2023-02-11T13:45:18.698Z,32.79
2023-02-11T13:47:45.332Z,33.43
2023-02-11T13:50:21.863Z,31.58
2023-02-11T13:52:48.503Z,31.99
2023-02-11T13:55:21.280Z,31.85
2023-02-11T13:58:05.926Z,31.76
2023-02-11T14:00:35.391Z,33.39
2023-02-11T14:03:11.003Z,31.71
2023-02-11T14:05:37.666Z,31.40
2023-02-11T14:08:09.908Z,32.41
2023-02-11T14:10:42.455Z,32.07
2023-02-11T14:13:25.112Z,32.16
2023-02-11T14:16:06.911Z,32.87
2023-02-11T14:18:37.446Z,32.41
2023-02-11T14:21:11.491Z,33.13
2023-02-11T14:23:38.146Z,32.44
2023-02-11T14:26:20.132Z,32.04
2023-02-11T14:28:54.479Z,32.92
2023-02-11T14:31:26.453Z,32.52
2023-02-11T14:34:21.383Z,30.28
2023-02-11T14:36:54.894Z,29.30
2023-02-11T14:40:00.877Z,29.96
2023-02-11T14:42:28.045Z,28.76
2023-02-11T14:45:02.847Z,28.94
2023-02-11T14:47:34.482Z,29.40
2023-02-11T14:50:01.123Z,28.60
2023-02-11T14:52:29.469Z,28.48
2023-02-11T14:55:17.788Z,30.10
2023-02-11T14:57:44.666Z,31.00
2023-02-11T15:00:16.560Z,30.18
2023-02-11T15:02:43.443Z,29.36
2023-02-11T15:05:21.913Z,29.61
2023-02-11T15:07:50.459Z,28.04
2023-02-11T15:10:19.074Z,29.16
2023-02-11T15:12:45.837Z,29.22
2023-02-11T15:15:12.488Z,27.99
2023-02-11T15:17:39.140Z,27.48
2023-02-11T15:20:06.597Z,26.95
2023-02-11T15:22:33.757Z,26.57
2023-02-11T15:25:08.743Z,26.25
2023-02-11T15:27:44.379Z,25.16
2023-02-11T15:30:23.929Z,24.30
2023-02-11T15:32:51.236Z,24.95
2023-02-11T15:35:18.158Z,25.19
2023-02-11T15:37:44.878Z,26.80
2023-02-11T15:40:12.362Z,26.83
2023-02-11T15:42:52.132Z,25.38
2023-02-11T15:45:19.588Z,24.89
2023-02-11T15:47:51.113Z,25.08
2023-02-11T15:50:31.641Z,25.02
2023-02-11T15:53:00.498Z,24.06
2023-02-11T15:55:27.148Z,22.30
2023-02-11T15:57:55.341Z,22.24
2023-02-11T16:00:23.833Z,23.66
2023-02-11T16:02:50.479Z,23.56
2023-02-11T16:05:31.817Z,22.98
2023-02-11T16:07:58.738Z,22.84
2023-02-11T16:10:29.355Z,22.13
2023-02-11T16:13:05.769Z,22.03
2023-02-11T16:15:35.282Z,22.03
2023-02-11T16:18:02.471Z,21.49
2023-02-11T16:20:29.130Z,21.18
2023-02-11T16:22:55.776Z,21.64
2023-02-11T16:25:23.228Z,21.69
2023-02-11T16:27:51.723Z,21.86
2023-02-11T16:30:23.820Z,20.61
2023-02-11T16:32:50.475Z,20.84
2023-02-11T16:35:17.177Z,21.45
2023-02-11T16:37:43.818Z,20.33
2023-02-11T16:40:11.849Z,20.08
2023-02-11T16:42:38.496Z,20.42
2023-02-11T16:45:06.700Z,20.59
2023-02-11T16:47:35.434Z,20.10
2023-02-11T16:50:02.268Z,19.56
2023-02-11T16:52:28.953Z,20.43
2023-02-11T16:54:55.607Z,19.64
2023-02-11T16:57:23.611Z,20.66
2023-02-11T16:59:50.335Z,20.62
2023-02-11T17:02:22.860Z,22.30
2023-02-11T17:04:50.567Z,22.52
2023-02-11T17:07:17.323Z,22.77
2023-02-11T17:09:44.704Z,25.15
2023-02-11T17:12:11.361Z,25.13
2023-02-11T17:14:38.022Z,23.95
2023-02-11T17:17:04.669Z,25.62
2023-02-11T17:19:31.336Z,25.99
2023-02-11T17:21:58.035Z,25.87
2023-02-11T17:24:24.669Z,28.19
2023-02-11T17:26:51.311Z,30.27
2023-02-11T17:29:22.516Z,30.24
2023-02-11T17:31:49.474Z,26.35
2023-02-11T17:34:16.554Z,26.94
2023-02-11T17:36:43.214Z,28.83
2023-02-11T17:39:09.861Z,34.85
2023-02-11T17:41:37.151Z,38.06
2023-02-11T17:44:04.038Z,39.76
2023-02-11T17:46:30.724Z,38.92
2023-02-11T17:48:58.240Z,35.28
2023-02-11T17:51:27.774Z,30.15
2023-02-11T17:53:54.444Z,29.19
2023-02-11T17:56:21.084Z,29.39
2023-02-11T17:58:47.781Z,28.55
2023-02-11T18:01:14.496Z,28.89
2023-02-11T18:03:41.199Z,35.83
2023-02-11T18:06:07.940Z,41.73
2023-02-11T18:08:34.893Z,46.83
2023-02-11T18:11:01.561Z,37.05
2023-02-11T18:13:28.289Z,32.70
2023-02-11T18:15:55.099Z,45.17
2023-02-11T18:18:21.761Z,47.27
2023-02-11T18:20:58.636Z,46.06
2023-02-11T18:23:25.477Z,43.93
2023-02-11T18:25:52.510Z,39.83
2023-02-11T18:28:19.374Z,38.02
2023-02-11T18:30:46.062Z,36.99
2023-02-11T18:33:12.749Z,39.39
2023-02-11T18:35:39.649Z,40.98
2023-02-11T18:38:06.322Z,41.58
2023-02-11T18:40:34.030Z,39.05
2023-02-11T18:43:00.654Z,38.97
2023-02-11T18:45:27.344Z,38.20
2023-02-11T18:47:54.107Z,41.06
2023-02-11T18:50:20.754Z,39.32
2023-02-11T18:52:47.790Z,41.25
2023-02-11T18:55:14.606Z,43.98
2023-02-11T18:57:41.260Z,43.61
2023-02-11T19:00:08.528Z,41.41
2023-02-11T19:02:35.407Z,41.08
2023-02-11T19:05:02.486Z,41.07
2023-02-11T19:07:29.410Z,42.65
2023-02-11T19:09:56.110Z,43.37
2023-02-11T19:12:22.780Z,41.16
2023-02-11T19:14:49.453Z,41.16
2023-02-11T19:17:16.101Z,46.45
2023-02-11T19:19:42.751Z,47.12
2023-02-11T19:22:10.804Z,44.14
2023-02-11T19:24:37.620Z,43.31
2023-02-11T19:27:04.360Z,42.16
2023-02-11T19:29:30.995Z,40.80
2023-02-11T19:31:57.715Z,38.79
2023-02-11T19:34:24.477Z,37.56
2023-02-11T19:36:51.145Z,35.83
2023-02-11T19:39:17.786Z,34.68
2023-02-11T19:41:44.499Z,34.94
2023-02-11T19:44:11.164Z,34.83
2023-02-11T19:46:38.479Z,34.42
2023-02-11T19:49:05.316Z,35.12
2023-02-11T19:51:31.965Z,38.34
2023-02-11T19:53:58.651Z,38.78
2023-02-11T19:56:25.523Z,39.40
2023-02-11T19:58:52.217Z,40.11
2023-02-11T20:01:19.913Z,39.67
2023-02-11T20:03:50.048Z,43.05
2023-02-11T20:06:20.459Z,42.89
2023-02-11T20:08:47.127Z,41.04
2023-02-11T20:11:16.524Z,41.40
2023-02-11T20:13:43.219Z,41.52
2023-02-11T20:16:12.027Z,39.54
2023-02-11T20:18:39.310Z,38.64
2023-02-11T20:21:07.594Z,38.67
2023-02-11T20:23:34.578Z,41.34
2023-02-11T20:26:12.805Z,39.77
2023-02-11T20:28:39.485Z,37.75
2023-02-11T20:31:06.398Z,37.00
2023-02-11T20:33:33.226Z,37.66
2023-02-11T20:36:01.723Z,39.46
2023-02-11T20:38:28.379Z,38.95
2023-02-11T20:40:55.103Z,40.52
2023-02-11T20:43:21.924Z,39.81
2023-02-11T20:45:48.622Z,40.39
2023-02-11T20:48:15.276Z,39.75
2023-02-11T20:50:41.948Z,36.90
2023-02-11T20:53:08.589Z,36.20
2023-02-11T20:55:37.466Z,36.43
2023-02-11T20:58:05.405Z,38.13
2023-02-11T21:00:32.060Z,36.54
2023-02-11T21:02:58.779Z,38.17
2023-02-11T21:05:25.457Z,37.68
2023-02-11T21:07:53.127Z,36.65
2023-02-11T21:10:19.850Z,36.62
2023-02-11T21:12:49.533Z,37.70
2023-02-11T21:15:16.533Z,37.87
2023-02-11T21:17:43.237Z,37.01
2023-02-11T21:20:10.244Z,36.74
2023-02-11T21:22:36.942Z,35.64
2023-02-11T21:25:03.716Z,35.47
2023-02-11T21:27:30.395Z,35.60
2023-02-11T21:29:57.067Z,34.95
2023-02-11T21:32:23.835Z,33.59
2023-02-11T21:34:50.558Z,34.32
2023-02-11T21:37:17.207Z,33.33
2023-02-11T21:39:43.862Z,31.51
2023-02-11T21:42:10.643Z,33.11
2023-02-11T21:44:37.324Z,33.11
2023-02-11T21:47:04.019Z,32.59
2023-02-11T21:49:30.717Z,35.93
2023-02-11T21:51:57.420Z,34.00
2023-02-11T21:54:24.165Z,32.93
2023-02-11T21:56:50.846Z,33.14
2023-02-11T21:59:17.501Z,33.20
2023-02-11T22:01:44.991Z,32.70
2023-02-11T22:04:11.859Z,30.52
2023-02-11T22:06:38.575Z,29.61
2023-02-11T22:09:06.525Z,26.95
2023-02-11T22:11:33.248Z,25.06
2023-02-11T22:13:59.931Z,25.86
2023-02-11T22:16:27.073Z,24.96
2023-02-11T22:18:53.821Z,26.00
2023-02-11T22:21:21.849Z,26.28
2023-02-11T22:23:48.672Z,26.08
2023-02-11T22:26:17.041Z,25.12
2023-02-11T22:28:43.780Z,23.75
2023-02-11T22:31:15.138Z,24.47
2023-02-11T22:33:41.866Z,22.33
2023-02-11T22:36:12.583Z,23.00
2023-02-11T22:38:39.242Z,22.73
2023-02-11T22:41:07.087Z,22.51
2023-02-11T22:43:33.754Z,22.12
2023-02-11T22:46:01.332Z,22.16
2023-02-11T22:48:28.023Z,22.23
2023-02-11T22:50:54.689Z,21.77
2023-02-11T22:53:21.338Z,22.62
2023-02-11T22:55:48.088Z,21.99
2023-02-11T22:58:14.720Z,21.65
2023-02-11T23:00:41.386Z,22.30
2023-02-11T23:03:08.175Z,22.62
2023-02-11T23:05:41.252Z,25.92
2023-02-11T23:08:08.718Z,26.17
2023-02-11T23:10:36.200Z,24.11
2023-02-11T23:13:03.560Z,22.66
2023-02-11T23:15:30.258Z,21.98
2023-02-11T23:17:56.932Z,22.13
2023-02-11T23:20:23.613Z,21.77
2023-02-11T23:22:50.251Z,22.47
2023-02-11T23:25:16.905Z,22.52
2023-02-11T23:27:43.576Z,22.05
2023-02-11T23:30:10.621Z,22.07
2023-02-11T23:32:40.022Z,21.47
2023-02-11T23:35:06.698Z,21.77
2023-02-11T23:37:33.375Z,21.40
2023-02-11T23:40:00.004Z,21.64
2023-02-11T23:42:26.643Z,21.37
2023-02-11T23:44:53.307Z,21.35
2023-02-11T23:47:19.948Z,21.82
2023-02-11T23:49:46.602Z,21.83
2023-02-11T23:52:13.249Z,22.09
2023-02-11T23:54:40.023Z,22.06
2023-02-11T23:57:06.696Z,21.99
2023-02-11T23:59:33.365Z,21.70
